sensor_id;sensor_type;location;lat;lon;timestamp;P1;durP1;ratioP1;P2;durP2;ratioP2
60494;SDS011;46342;49.046;11.920;2022-11-21T00:00:26;1.05;;;0.95;;
60494;SDS011;46342;49.046;11.920;2022-11-21T00:02:53;1.08;;;0.98;;
60494;SDS011;46342;49.046;11.920;2022-11-21T00:05:18;1.30;;;1.10;;
60494;SDS011;46342;49.046;11.920;2022-11-21T00:07:44;1.45;;;0.85;;
60494;SDS011;46342;49.046;11.920;2022-11-21T00:10:10;1.17;;;1.08;;
60494;SDS011;46342;49.046;11.920;2022-11-21T00:12:37;1.00;;;1.00;;
60494;SDS011;46342;49.046;11.920;2022-11-21T00:15:03;0.82;;;0.82;;
60494;SDS011;46342;49.046;11.920;2022-11-21T00:17:29;1.10;;;1.00;;
60494;SDS011;46342;49.046;11.920;2022-11-21T00:19:55;2.92;;;1.02;;
60494;SDS011;46342;49.046;11.920;2022-11-21T00:22:20;1.15;;;1.08;;
60494;SDS011;46342;49.046;11.920;2022-11-21T00:24:46;7.78;;;4.35;;
60494;SDS011;46342;49.046;11.920;2022-11-21T00:27:11;3.80;;;1.90;;
60494;SDS011;46342;49.046;11.920;2022-11-21T00:29:37;22.55;;;12.10;;
60494;SDS011;46342;49.046;11.920;2022-11-21T00:32:02;13.73;;;7.85;;
60494;SDS011;46342;49.046;11.920;2022-11-21T00:34:28;4.63;;;3.58;;
60494;SDS011;46342;49.046;11.920;2022-11-21T00:36:54;2.83;;;1.83;;
60494;SDS011;46342;49.046;11.920;2022-11-21T00:39:19;11.77;;;5.05;;
60494;SDS011;46342;49.046;11.920;2022-11-21T00:41:45;10.55;;;4.20;;
60494;SDS011;46342;49.046;11.920;2022-11-21T00:44:10;2.70;;;2.00;;
60494;SDS011;46342;49.046;11.920;2022-11-21T00:46:36;3.25;;;2.30;;
60494;SDS011;46342;49.046;11.920;2022-11-21T00:49:02;8.73;;;5.45;;
60494;SDS011;46342;49.046;11.920;2022-11-21T00:51:27;3.30;;;2.55;;
60494;SDS011;46342;49.046;11.920;2022-11-21T00:53:53;7.07;;;4.65;;
60494;SDS011;46342;49.046;11.920;2022-11-21T00:56:18;3.33;;;2.42;;
60494;SDS011;46342;49.046;11.920;2022-11-21T00:58:44;2.05;;;1.60;;
60494;SDS011;46342;49.046;11.920;2022-11-21T01:01:11;1.55;;;1.45;;
60494;SDS011;46342;49.046;11.920;2022-11-21T01:03:38;1.40;;;1.10;;
60494;SDS011;46342;49.046;11.920;2022-11-21T01:06:05;1.67;;;1.58;;
60494;SDS011;46342;49.046;11.920;2022-11-21T01:08:33;1.52;;;1.20;;
60494;SDS011;46342;49.046;11.920;2022-11-21T01:11:10;3.35;;;1.73;;
60494;SDS011;46342;49.046;11.920;2022-11-21T01:13:38;3.53;;;2.05;;
60494;SDS011;46342;49.046;11.920;2022-11-21T01:18:34;1.10;;;0.98;;
60494;SDS011;46342;49.046;11.920;2022-11-21T01:21:01;2.72;;;1.70;;
60494;SDS011;46342;49.046;11.920;2022-11-21T01:23:28;3.13;;;1.80;;
60494;SDS011;46342;49.046;11.920;2022-11-21T01:25:53;15.00;;;8.68;;
60494;SDS011;46342;49.046;11.920;2022-11-21T01:28:19;4.38;;;2.67;;
60494;SDS011;46342;49.046;11.920;2022-11-21T01:30:45;1.80;;;1.50;;
60494;SDS011;46342;49.046;11.920;2022-11-21T01:33:10;1.20;;;1.13;;
60494;SDS011;46342;49.046;11.920;2022-11-21T01:35:36;4.00;;;2.33;;
60494;SDS011;46342;49.046;11.920;2022-11-21T01:38:01;4.25;;;3.17;;
60494;SDS011;46342;49.046;11.920;2022-11-21T01:40:27;1.80;;;1.40;;
60494;SDS011;46342;49.046;11.920;2022-11-21T01:43:00;2.45;;;1.88;;
60494;SDS011;46342;49.046;11.920;2022-11-21T01:48:14;0.90;;;0.90;;
60494;SDS011;46342;49.046;11.920;2022-11-21T01:50:40;0.77;;;0.70;;
60494;SDS011;46342;49.046;11.920;2022-11-21T01:53:06;1.15;;;1.05;;
60494;SDS011;46342;49.046;11.920;2022-11-21T01:55:32;0.80;;;0.68;;
60494;SDS011;46342;49.046;11.920;2022-11-21T01:57:58;1.80;;;1.50;;
60494;SDS011;46342;49.046;11.920;2022-11-21T02:00:25;0.68;;;0.68;;
60494;SDS011;46342;49.046;11.920;2022-11-21T02:02:54;1.02;;;0.90;;
60494;SDS011;46342;49.046;11.920;2022-11-21T02:05:25;1.30;;;1.10;;
60494;SDS011;46342;49.046;11.920;2022-11-21T02:07:55;0.88;;;0.85;;
60494;SDS011;46342;49.046;11.920;2022-11-21T02:10:24;1.23;;;1.00;;
60494;SDS011;46342;49.046;11.920;2022-11-21T02:12:52;1.67;;;0.85;;
60494;SDS011;46342;49.046;11.920;2022-11-21T02:15:36;2.72;;;0.90;;
60494;SDS011;46342;49.046;11.920;2022-11-21T02:18:02;0.75;;;0.70;;
60494;SDS011;46342;49.046;11.920;2022-11-21T02:20:33;1.48;;;1.23;;
60494;SDS011;46342;49.046;11.920;2022-11-21T02:23:18;0.70;;;0.70;;
60494;SDS011;46342;49.046;11.920;2022-11-21T02:25:49;1.05;;;0.70;;
60494;SDS011;46342;49.046;11.920;2022-11-21T02:28:17;0.70;;;0.70;;
60494;SDS011;46342;49.046;11.920;2022-11-21T02:30:45;2.25;;;1.00;;
60494;SDS011;46342;49.046;11.920;2022-11-21T02:33:11;1.30;;;1.00;;
60494;SDS011;46342;49.046;11.920;2022-11-21T02:35:37;1.10;;;1.00;;
60494;SDS011;46342;49.046;11.920;2022-11-21T02:40:41;0.50;;;0.50;;
60494;SDS011;46342;49.046;11.920;2022-11-21T02:45:39;1.30;;;0.85;;
60494;SDS011;46342;49.046;11.920;2022-11-21T02:48:06;0.70;;;0.70;;
60494;SDS011;46342;49.046;11.920;2022-11-21T02:50:33;0.98;;;0.70;;
60494;SDS011;46342;49.046;11.920;2022-11-21T02:55:26;1.23;;;0.77;;
60494;SDS011;46342;49.046;11.920;2022-11-21T02:57:52;2.00;;;0.70;;
60494;SDS011;46342;49.046;11.920;2022-11-21T03:00:18;0.80;;;0.80;;
60494;SDS011;46342;49.046;11.920;2022-11-21T03:02:44;0.77;;;0.77;;
60494;SDS011;46342;49.046;11.920;2022-11-21T03:05:11;0.77;;;0.70;;
60494;SDS011;46342;49.046;11.920;2022-11-21T03:10:04;0.70;;;0.70;;
60494;SDS011;46342;49.046;11.920;2022-11-21T03:12:30;0.80;;;0.80;;
60494;SDS011;46342;49.046;11.920;2022-11-21T03:14:56;0.70;;;0.70;;
60494;SDS011;46342;49.046;11.920;2022-11-21T03:17:21;0.80;;;0.80;;
60494;SDS011;46342;49.046;11.920;2022-11-21T03:19:47;0.70;;;0.70;;
60494;SDS011;46342;49.046;11.920;2022-11-21T03:22:13;0.70;;;0.70;;
60494;SDS011;46342;49.046;11.920;2022-11-21T03:24:39;0.70;;;0.70;;
60494;SDS011;46342;49.046;11.920;2022-11-21T03:27:05;0.68;;;0.60;;
60494;SDS011;46342;49.046;11.920;2022-11-21T03:29:31;1.10;;;0.63;;
60494;SDS011;46342;49.046;11.920;2022-11-21T03:31:56;0.60;;;0.60;;
60494;SDS011;46342;49.046;11.920;2022-11-21T03:34:22;0.52;;;0.52;;
60494;SDS011;46342;49.046;11.920;2022-11-21T03:36:49;0.80;;;0.60;;
60494;SDS011;46342;49.046;11.920;2022-11-21T03:39:14;1.65;;;0.60;;
60494;SDS011;46342;49.046;11.920;2022-11-21T03:41:40;0.60;;;0.60;;
60494;SDS011;46342;49.046;11.920;2022-11-21T03:44:07;0.60;;;0.60;;
60494;SDS011;46342;49.046;11.920;2022-11-21T03:46:36;1.77;;;0.70;;
60494;SDS011;46342;49.046;11.920;2022-11-21T03:49:03;1.05;;;0.68;;
60494;SDS011;46342;49.046;11.920;2022-11-21T03:51:29;0.93;;;0.52;;
60494;SDS011;46342;49.046;11.920;2022-11-21T03:53:55;0.50;;;0.50;;
60494;SDS011;46342;49.046;11.920;2022-11-21T03:56:20;0.60;;;0.60;;
60494;SDS011;46342;49.046;11.920;2022-11-21T03:58:46;0.60;;;0.60;;
60494;SDS011;46342;49.046;11.920;2022-11-21T04:01:12;1.30;;;0.60;;
60494;SDS011;46342;49.046;11.920;2022-11-21T04:03:38;0.95;;;0.50;;
60494;SDS011;46342;49.046;11.920;2022-11-21T04:06:04;0.40;;;0.40;;
60494;SDS011;46342;49.046;11.920;2022-11-21T04:08:30;0.60;;;0.60;;
60494;SDS011;46342;49.046;11.920;2022-11-21T04:10:56;1.20;;;0.57;;
60494;SDS011;46342;49.046;11.920;2022-11-21T04:13:22;0.60;;;0.60;;
60494;SDS011;46342;49.046;11.920;2022-11-21T04:15:48;0.85;;;0.57;;
60494;SDS011;46342;49.046;11.920;2022-11-21T04:18:14;0.55;;;0.55;;
60494;SDS011;46342;49.046;11.920;2022-11-21T04:20:40;0.75;;;0.60;;
60494;SDS011;46342;49.046;11.920;2022-11-21T04:23:05;0.90;;;0.60;;
60494;SDS011;46342;49.046;11.920;2022-11-21T04:25:31;1.75;;;0.70;;
60494;SDS011;46342;49.046;11.920;2022-11-21T04:27:58;0.70;;;0.70;;
60494;SDS011;46342;49.046;11.920;2022-11-21T04:30:24;0.80;;;0.70;;
60494;SDS011;46342;49.046;11.920;2022-11-21T04:32:51;0.73;;;0.70;;
60494;SDS011;46342;49.046;11.920;2022-11-21T04:35:17;2.25;;;0.85;;
60494;SDS011;46342;49.046;11.920;2022-11-21T04:37:43;1.30;;;0.80;;
60494;SDS011;46342;49.046;11.920;2022-11-21T04:40:08;0.60;;;0.60;;
60494;SDS011;46342;49.046;11.920;2022-11-21T04:42:35;1.88;;;0.60;;
60494;SDS011;46342;49.046;11.920;2022-11-21T04:45:00;0.55;;;0.55;;
60494;SDS011;46342;49.046;11.920;2022-11-21T04:47:26;0.65;;;0.65;;
60494;SDS011;46342;49.046;11.920;2022-11-21T04:49:51;1.15;;;0.55;;
60494;SDS011;46342;49.046;11.920;2022-11-21T04:52:17;2.45;;;0.63;;
60494;SDS011;46342;49.046;11.920;2022-11-21T04:54:43;1.75;;;0.57;;
60494;SDS011;46342;49.046;11.920;2022-11-21T04:57:09;1.98;;;0.75;;
60494;SDS011;46342;49.046;11.920;2022-11-21T04:59:34;1.65;;;0.70;;
60494;SDS011;46342;49.046;11.920;2022-11-21T05:02:01;0.85;;;0.63;;
60494;SDS011;46342;49.046;11.920;2022-11-21T05:04:27;0.50;;;0.50;;
60494;SDS011;46342;49.046;11.920;2022-11-21T05:06:53;0.50;;;0.50;;
60494;SDS011;46342;49.046;11.920;2022-11-21T05:09:18;0.70;;;0.70;;
60494;SDS011;46342;49.046;11.920;2022-11-21T05:11:44;0.50;;;0.50;;
60494;SDS011;46342;49.046;11.920;2022-11-21T05:14:28;0.57;;;0.50;;
60494;SDS011;46342;49.046;11.920;2022-11-21T05:16:53;0.82;;;0.82;;
60494;SDS011;46342;49.046;11.920;2022-11-21T05:19:19;2.75;;;0.70;;
60494;SDS011;46342;49.046;11.920;2022-11-21T05:21:44;1.50;;;0.77;;
60494;SDS011;46342;49.046;11.920;2022-11-21T05:24:10;0.57;;;0.57;;
60494;SDS011;46342;49.046;11.920;2022-11-21T05:26:35;0.68;;;0.60;;
60494;SDS011;46342;49.046;11.920;2022-11-21T05:29:02;0.75;;;0.70;;
60494;SDS011;46342;49.046;11.920;2022-11-21T05:31:28;1.63;;;0.70;;
60494;SDS011;46342;49.046;11.920;2022-11-21T05:33:54;0.68;;;0.60;;
60494;SDS011;46342;49.046;11.920;2022-11-21T05:36:19;0.50;;;0.50;;
60494;SDS011;46342;49.046;11.920;2022-11-21T05:38:45;0.47;;;0.47;;
60494;SDS011;46342;49.046;11.920;2022-11-21T05:41:10;0.60;;;0.60;;
60494;SDS011;46342;49.046;11.920;2022-11-21T05:43:36;0.63;;;0.63;;
60494;SDS011;46342;49.046;11.920;2022-11-21T05:46:11;1.27;;;0.77;;
60494;SDS011;46342;49.046;11.920;2022-11-21T05:48:41;0.50;;;0.50;;
60494;SDS011;46342;49.046;11.920;2022-11-21T05:51:07;0.70;;;0.70;;
60494;SDS011;46342;49.046;11.920;2022-11-21T05:53:33;0.50;;;0.50;;
60494;SDS011;46342;49.046;11.920;2022-11-21T05:56:03;0.55;;;0.55;;
60494;SDS011;46342;49.046;11.920;2022-11-21T05:58:31;1.65;;;0.60;;
60494;SDS011;46342;49.046;11.920;2022-11-21T06:00:57;0.73;;;0.50;;
60494;SDS011;46342;49.046;11.920;2022-11-21T06:03:24;0.60;;;0.57;;
60494;SDS011;46342;49.046;11.920;2022-11-21T06:06:10;0.60;;;0.60;;
60494;SDS011;46342;49.046;11.920;2022-11-21T06:08:38;0.40;;;0.40;;
60494;SDS011;46342;49.046;11.920;2022-11-21T06:11:06;0.50;;;0.50;;
60494;SDS011;46342;49.046;11.920;2022-11-21T06:13:33;0.45;;;0.45;;
60494;SDS011;46342;49.046;11.920;2022-11-21T06:16:09;0.50;;;0.50;;
60494;SDS011;46342;49.046;11.920;2022-11-21T06:18:43;0.40;;;0.40;;
60494;SDS011;46342;49.046;11.920;2022-11-21T06:21:12;0.50;;;0.50;;
60494;SDS011;46342;49.046;11.920;2022-11-21T06:23:52;0.50;;;0.50;;
60494;SDS011;46342;49.046;11.920;2022-11-21T06:26:20;0.55;;;0.55;;
60494;SDS011;46342;49.046;11.920;2022-11-21T06:28:47;0.45;;;0.45;;
60494;SDS011;46342;49.046;11.920;2022-11-21T06:31:15;0.40;;;0.40;;
60494;SDS011;46342;49.046;11.920;2022-11-21T06:33:42;0.43;;;0.43;;
60494;SDS011;46342;49.046;11.920;2022-11-21T06:36:10;0.40;;;0.40;;
60494;SDS011;46342;49.046;11.920;2022-11-21T06:38:37;0.60;;;0.60;;
60494;SDS011;46342;49.046;11.920;2022-11-21T06:41:03;0.50;;;0.50;;
60494;SDS011;46342;49.046;11.920;2022-11-21T06:43:34;0.32;;;0.32;;
60494;SDS011;46342;49.046;11.920;2022-11-21T06:46:00;0.50;;;0.50;;
60494;SDS011;46342;49.046;11.920;2022-11-21T06:48:28;0.50;;;0.50;;
60494;SDS011;46342;49.046;11.920;2022-11-21T06:50:54;1.48;;;0.50;;
60494;SDS011;46342;49.046;11.920;2022-11-21T06:53:19;0.40;;;0.40;;
60494;SDS011;46342;49.046;11.920;2022-11-21T06:55:45;0.57;;;0.40;;
60494;SDS011;46342;49.046;11.920;2022-11-21T06:58:11;0.40;;;0.40;;
60494;SDS011;46342;49.046;11.920;2022-11-21T07:00:36;0.40;;;0.40;;
60494;SDS011;46342;49.046;11.920;2022-11-21T07:03:02;1.67;;;0.50;;
60494;SDS011;46342;49.046;11.920;2022-11-21T07:05:28;0.40;;;0.40;;
60494;SDS011;46342;49.046;11.920;2022-11-21T07:07:58;0.88;;;0.50;;
60494;SDS011;46342;49.046;11.920;2022-11-21T07:10:24;0.50;;;0.50;;
60494;SDS011;46342;49.046;11.920;2022-11-21T07:12:50;0.50;;;0.50;;
60494;SDS011;46342;49.046;11.920;2022-11-21T07:15:34;0.50;;;0.50;;
60494;SDS011;46342;49.046;11.920;2022-11-21T07:18:00;0.40;;;0.40;;
60494;SDS011;46342;49.046;11.920;2022-11-21T07:20:26;0.50;;;0.50;;
60494;SDS011;46342;49.046;11.920;2022-11-21T07:22:55;0.80;;;0.43;;
60494;SDS011;46342;49.046;11.920;2022-11-21T07:25:21;0.50;;;0.50;;
60494;SDS011;46342;49.046;11.920;2022-11-21T07:27:47;0.50;;;0.50;;
60494;SDS011;46342;49.046;11.920;2022-11-21T07:30:12;0.50;;;0.50;;
60494;SDS011;46342;49.046;11.920;2022-11-21T07:32:39;4.22;;;0.60;;
60494;SDS011;46342;49.046;11.920;2022-11-21T07:35:05;0.90;;;0.60;;
60494;SDS011;46342;49.046;11.920;2022-11-21T07:37:31;0.73;;;0.73;;
60494;SDS011;46342;49.046;11.920;2022-11-21T07:39:57;0.40;;;0.40;;
60494;SDS011;46342;49.046;11.920;2022-11-21T07:42:22;0.60;;;0.60;;
60494;SDS011;46342;49.046;11.920;2022-11-21T07:44:48;0.60;;;0.60;;
60494;SDS011;46342;49.046;11.920;2022-11-21T07:47:14;0.80;;;0.65;;
60494;SDS011;46342;49.046;11.920;2022-11-21T07:49:39;0.70;;;0.70;;
60494;SDS011;46342;49.046;11.920;2022-11-21T07:52:05;3.22;;;0.93;;
60494;SDS011;46342;49.046;11.920;2022-11-21T07:54:30;0.50;;;0.50;;
60494;SDS011;46342;49.046;11.920;2022-11-21T07:56:56;0.60;;;0.60;;
60494;SDS011;46342;49.046;11.920;2022-11-21T07:59:22;0.63;;;0.60;;
60494;SDS011;46342;49.046;11.920;2022-11-21T08:01:49;0.70;;;0.60;;
60494;SDS011;46342;49.046;11.920;2022-11-21T08:04:15;0.82;;;0.70;;
60494;SDS011;46342;49.046;11.920;2022-11-21T08:06:40;0.50;;;0.50;;
60494;SDS011;46342;49.046;11.920;2022-11-21T08:09:06;0.63;;;0.60;;
60494;SDS011;46342;49.046;11.920;2022-11-21T08:11:31;0.85;;;0.60;;
60494;SDS011;46342;49.046;11.920;2022-11-21T08:14:00;1.27;;;0.77;;
60494;SDS011;46342;49.046;11.920;2022-11-21T08:16:26;0.65;;;0.60;;
60494;SDS011;46342;49.046;11.920;2022-11-21T08:18:52;0.50;;;0.50;;
60494;SDS011;46342;49.046;11.920;2022-11-21T08:21:18;0.50;;;0.50;;
60494;SDS011;46342;49.046;11.920;2022-11-21T08:23:43;0.85;;;0.63;;
60494;SDS011;46342;49.046;11.920;2022-11-21T08:26:09;1.05;;;0.70;;
60494;SDS011;46342;49.046;11.920;2022-11-21T08:28:35;0.60;;;0.60;;
60494;SDS011;46342;49.046;11.920;2022-11-21T08:31:04;0.90;;;0.70;;
60494;SDS011;46342;49.046;11.920;2022-11-21T08:33:30;1.40;;;0.63;;
60494;SDS011;46342;49.046;11.920;2022-11-21T08:35:56;0.63;;;0.60;;
60494;SDS011;46342;49.046;11.920;2022-11-21T08:38:21;0.95;;;0.80;;
60494;SDS011;46342;49.046;11.920;2022-11-21T08:40:47;0.43;;;0.40;;
60494;SDS011;46342;49.046;11.920;2022-11-21T08:43:32;0.60;;;0.60;;
60494;SDS011;46342;49.046;11.920;2022-11-21T08:45:58;0.40;;;0.40;;
60494;SDS011;46342;49.046;11.920;2022-11-21T08:48:23;0.50;;;0.50;;
60494;SDS011;46342;49.046;11.920;2022-11-21T08:50:49;0.50;;;0.50;;
60494;SDS011;46342;49.046;11.920;2022-11-21T08:53:14;1.33;;;0.57;;
60494;SDS011;46342;49.046;11.920;2022-11-21T08:55:40;0.82;;;0.60;;
60494;SDS011;46342;49.046;11.920;2022-11-21T08:58:06;0.60;;;0.60;;
60494;SDS011;46342;49.046;11.920;2022-11-21T09:00:31;0.40;;;0.40;;
60494;SDS011;46342;49.046;11.920;2022-11-21T09:02:57;0.65;;;0.60;;
60494;SDS011;46342;49.046;11.920;2022-11-21T09:05:22;0.73;;;0.73;;
60494;SDS011;46342;49.046;11.920;2022-11-21T09:07:54;0.55;;;0.55;;
60494;SDS011;46342;49.046;11.920;2022-11-21T09:10:21;0.68;;;0.68;;
60494;SDS011;46342;49.046;11.920;2022-11-21T09:12:46;0.65;;;0.65;;
60494;SDS011;46342;49.046;11.920;2022-11-21T09:15:12;1.55;;;0.70;;
60494;SDS011;46342;49.046;11.920;2022-11-21T09:18:02;0.60;;;0.60;;
60494;SDS011;46342;49.046;11.920;2022-11-21T09:20:32;0.60;;;0.60;;
60494;SDS011;46342;49.046;11.920;2022-11-21T09:23:03;0.60;;;0.60;;
60494;SDS011;46342;49.046;11.920;2022-11-21T09:25:29;0.55;;;0.55;;
60494;SDS011;46342;49.046;11.920;2022-11-21T09:27:57;0.65;;;0.65;;
60494;SDS011;46342;49.046;11.920;2022-11-21T09:30:24;1.58;;;0.80;;
60494;SDS011;46342;49.046;11.920;2022-11-21T09:32:50;0.60;;;0.60;;
60494;SDS011;46342;49.046;11.920;2022-11-21T09:35:16;1.20;;;0.60;;
60494;SDS011;46342;49.046;11.920;2022-11-21T09:37:42;0.80;;;0.70;;
60494;SDS011;46342;49.046;11.920;2022-11-21T09:40:17;1.20;;;0.70;;
60494;SDS011;46342;49.046;11.920;2022-11-21T09:43:05;2.45;;;0.70;;
60494;SDS011;46342;49.046;11.920;2022-11-21T09:45:48;0.50;;;0.50;;
60494;SDS011;46342;49.046;11.920;2022-11-21T09:48:19;1.08;;;0.60;;
60494;SDS011;46342;49.046;11.920;2022-11-21T09:50:56;1.38;;;0.70;;
60494;SDS011;46342;49.046;11.920;2022-11-21T09:53:30;0.90;;;0.90;;
60494;SDS011;46342;49.046;11.920;2022-11-21T09:56:10;0.50;;;0.50;;
60494;SDS011;46342;49.046;11.920;2022-11-21T09:58:40;0.60;;;0.60;;
60494;SDS011;46342;49.046;11.920;2022-11-21T10:01:10;1.75;;;0.65;;
60494;SDS011;46342;49.046;11.920;2022-11-21T10:03:44;0.60;;;0.60;;
60494;SDS011;46342;49.046;11.920;2022-11-21T10:06:25;0.60;;;0.60;;
60494;SDS011;46342;49.046;11.920;2022-11-21T10:11:53;0.60;;;0.60;;
60494;SDS011;46342;49.046;11.920;2022-11-21T10:14:40;0.60;;;0.60;;
60494;SDS011;46342;49.046;11.920;2022-11-21T10:22:59;0.73;;;0.65;;
60494;SDS011;46342;49.046;11.920;2022-11-21T10:25:37;0.80;;;0.80;;
60494;SDS011;46342;49.046;11.920;2022-11-21T10:30:41;1.70;;;0.73;;
60494;SDS011;46342;49.046;11.920;2022-11-21T10:33:11;1.10;;;0.70;;
60494;SDS011;46342;49.046;11.920;2022-11-21T10:35:48;0.55;;;0.55;;
60494;SDS011;46342;49.046;11.920;2022-11-21T10:38:21;0.70;;;0.60;;
60494;SDS011;46342;49.046;11.920;2022-11-21T10:40:53;0.75;;;0.63;;
60494;SDS011;46342;49.046;11.920;2022-11-21T10:43:58;0.90;;;0.70;;
60494;SDS011;46342;49.046;11.920;2022-11-21T10:46:55;0.73;;;0.70;;
60494;SDS011;46342;49.046;11.920;2022-11-21T10:49:23;1.52;;;0.70;;
60494;SDS011;46342;49.046;11.920;2022-11-21T10:52:04;0.60;;;0.60;;
60494;SDS011;46342;49.046;11.920;2022-11-21T10:54:54;1.20;;;0.90;;
60494;SDS011;46342;49.046;11.920;2022-11-21T10:57:26;1.13;;;0.88;;
60494;SDS011;46342;49.046;11.920;2022-11-21T11:00:12;0.85;;;0.80;;
60494;SDS011;46342;49.046;11.920;2022-11-21T11:05:39;2.85;;;0.90;;
60494;SDS011;46342;49.046;11.920;2022-11-21T11:10:35;1.65;;;0.98;;
60494;SDS011;46342;49.046;11.920;2022-11-21T11:13:10;1.65;;;1.40;;
60494;SDS011;46342;49.046;11.920;2022-11-21T11:16:00;1.60;;;1.25;;
60494;SDS011;46342;49.046;11.920;2022-11-21T11:18:45;2.92;;;0.90;;
60494;SDS011;46342;49.046;11.920;2022-11-21T11:23:43;2.05;;;0.90;;
60494;SDS011;46342;49.046;11.920;2022-11-21T11:26:19;4.28;;;1.85;;
60494;SDS011;46342;49.046;11.920;2022-11-21T11:28:57;9.02;;;4.25;;
60494;SDS011;46342;49.046;11.920;2022-11-21T11:32:01;5.45;;;2.38;;
60494;SDS011;46342;49.046;11.920;2022-11-21T11:37:10;3.40;;;2.15;;
60494;SDS011;46342;49.046;11.920;2022-11-21T11:39:38;5.00;;;3.00;;
60494;SDS011;46342;49.046;11.920;2022-11-21T11:42:34;2.22;;;1.85;;
60494;SDS011;46342;49.046;11.920;2022-11-21T11:48:40;1.85;;;1.50;;
60494;SDS011;46342;49.046;11.920;2022-11-21T11:53:51;2.33;;;1.23;;
60494;SDS011;46342;49.046;11.920;2022-11-21T11:56:24;2.53;;;1.15;;
60494;SDS011;46342;49.046;11.920;2022-11-21T11:59:09;1.33;;;1.00;;
60494;SDS011;46342;49.046;11.920;2022-11-21T12:04:28;0.88;;;0.68;;
60494;SDS011;46342;49.046;11.920;2022-11-21T12:07:16;1.52;;;0.75;;
60494;SDS011;46342;49.046;11.920;2022-11-21T12:10:11;0.93;;;0.80;;
60494;SDS011;46342;49.046;11.920;2022-11-21T12:13:02;1.05;;;0.70;;
60494;SDS011;46342;49.046;11.920;2022-11-21T12:15:40;0.95;;;0.50;;
60494;SDS011;46342;49.046;11.920;2022-11-21T12:18:19;1.30;;;0.80;;
60494;SDS011;46342;49.046;11.920;2022-11-21T12:23:46;0.65;;;0.60;;
60494;SDS011;46342;49.046;11.920;2022-11-21T12:31:35;0.70;;;0.70;;
60494;SDS011;46342;49.046;11.920;2022-11-21T12:36:53;1.15;;;0.60;;
60494;SDS011;46342;49.046;11.920;2022-11-21T12:42:23;2.15;;;0.85;;
60494;SDS011;46342;49.046;11.920;2022-11-21T12:54:10;1.33;;;0.63;;
60494;SDS011;46342;49.046;11.920;2022-11-21T12:59:59;1.58;;;0.80;;
60494;SDS011;46342;49.046;11.920;2022-11-21T13:05:23;1.38;;;1.00;;
60494;SDS011;46342;49.046;11.920;2022-11-21T13:07:59;1.45;;;0.70;;
60494;SDS011;46342;49.046;11.920;2022-11-21T13:10:29;1.13;;;0.50;;
60494;SDS011;46342;49.046;11.920;2022-11-21T13:13:38;1.80;;;0.70;;
60494;SDS011;46342;49.046;11.920;2022-11-21T13:16:05;0.70;;;0.70;;
60494;SDS011;46342;49.046;11.920;2022-11-21T13:18:39;1.20;;;0.80;;
60494;SDS011;46342;49.046;11.920;2022-11-21T13:24:06;4.63;;;2.00;;
60494;SDS011;46342;49.046;11.920;2022-11-21T13:29:11;3.08;;;0.90;;
60494;SDS011;46342;49.046;11.920;2022-11-21T13:31:38;1.30;;;0.90;;
60494;SDS011;46342;49.046;11.920;2022-11-21T13:34:04;1.38;;;0.80;;
60494;SDS011;46342;49.046;11.920;2022-11-21T13:36:56;1.15;;;0.60;;
60494;SDS011;46342;49.046;11.920;2022-11-21T13:42:00;1.42;;;0.90;;
60494;SDS011;46342;49.046;11.920;2022-11-21T13:44:48;1.05;;;0.80;;
60494;SDS011;46342;49.046;11.920;2022-11-21T14:09:51;1.92;;;1.08;;
60494;SDS011;46342;49.046;11.920;2022-11-21T14:12:22;0.90;;;0.90;;
60494;SDS011;46342;49.046;11.920;2022-11-21T14:19:52;1.30;;;1.20;;
60494;SDS011;46342;49.046;11.920;2022-11-21T14:22:54;0.77;;;0.77;;
60494;SDS011;46342;49.046;11.920;2022-11-21T14:25:22;0.80;;;0.80;;
60494;SDS011;46342;49.046;11.920;2022-11-21T14:27:55;2.28;;;1.10;;
60494;SDS011;46342;49.046;11.920;2022-11-21T14:35:53;2.25;;;0.90;;
60494;SDS011;46342;49.046;11.920;2022-11-21T14:38:21;1.60;;;1.13;;
60494;SDS011;46342;49.046;11.920;2022-11-21T14:40:47;0.80;;;0.80;;
60494;SDS011;46342;49.046;11.920;2022-11-21T14:43:27;2.60;;;0.80;;
60494;SDS011;46342;49.046;11.920;2022-11-21T14:45:57;0.98;;;0.80;;
60494;SDS011;46342;49.046;11.920;2022-11-21T14:48:27;0.80;;;0.80;;
60494;SDS011;46342;49.046;11.920;2022-11-21T14:50:54;4.00;;;0.90;;
60494;SDS011;46342;49.046;11.920;2022-11-21T14:53:22;0.85;;;0.70;;
60494;SDS011;46342;49.046;11.920;2022-11-21T14:55:49;0.95;;;0.63;;
60494;SDS011;46342;49.046;11.920;2022-11-21T14:58:18;1.60;;;0.77;;
60494;SDS011;46342;49.046;11.920;2022-11-21T15:01:05;1.10;;;0.95;;
60494;SDS011;46342;49.046;11.920;2022-11-21T15:03:57;2.72;;;0.90;;
60494;SDS011;46342;49.046;11.920;2022-11-21T15:06:27;1.52;;;1.10;;
60494;SDS011;46342;49.046;11.920;2022-11-21T15:08:57;3.10;;;2.00;;
60494;SDS011;46342;49.046;11.920;2022-11-21T15:11:37;3.70;;;2.38;;
60494;SDS011;46342;49.046;11.920;2022-11-21T15:16:48;4.78;;;2.72;;
60494;SDS011;46342;49.046;11.920;2022-11-21T15:19:18;4.75;;;2.72;;
60494;SDS011;46342;49.046;11.920;2022-11-21T15:21:45;3.35;;;2.25;;
60494;SDS011;46342;49.046;11.920;2022-11-21T15:25:03;5.40;;;3.13;;
60494;SDS011;46342;49.046;11.920;2022-11-21T15:38:32;2.10;;;1.00;;
60494;SDS011;46342;49.046;11.920;2022-11-21T15:43:42;0.75;;;0.75;;
60494;SDS011;46342;49.046;11.920;2022-11-21T15:46:13;1.50;;;0.75;;
60494;SDS011;46342;49.046;11.920;2022-11-21T15:48:39;1.83;;;0.70;;
60494;SDS011;46342;49.046;11.920;2022-11-21T15:51:09;2.60;;;1.00;;
60494;SDS011;46342;49.046;11.920;2022-11-21T15:53:35;0.95;;;0.80;;
60494;SDS011;46342;49.046;11.920;2022-11-21T15:56:01;2.25;;;1.10;;
60494;SDS011;46342;49.046;11.920;2022-11-21T15:58:27;2.38;;;1.20;;
60494;SDS011;46342;49.046;11.920;2022-11-21T16:00:53;1.27;;;1.10;;
60494;SDS011;46342;49.046;11.920;2022-11-21T16:03:18;1.30;;;1.20;;
60494;SDS011;46342;49.046;11.920;2022-11-21T16:05:44;2.08;;;1.20;;
60494;SDS011;46342;49.046;11.920;2022-11-21T16:08:09;1.42;;;1.25;;
60494;SDS011;46342;49.046;11.920;2022-11-21T16:10:35;3.30;;;1.70;;
60494;SDS011;46342;49.046;11.920;2022-11-21T16:13:01;3.20;;;1.52;;
60494;SDS011;46342;49.046;11.920;2022-11-21T16:15:27;3.08;;;1.70;;
60494;SDS011;46342;49.046;11.920;2022-11-21T16:17:53;4.07;;;1.77;;
60494;SDS011;46342;49.046;11.920;2022-11-21T16:20:18;4.50;;;1.95;;
60494;SDS011;46342;49.046;11.920;2022-11-21T16:22:44;1.85;;;1.52;;
60494;SDS011;46342;49.046;11.920;2022-11-21T16:25:09;2.00;;;1.70;;
60494;SDS011;46342;49.046;11.920;2022-11-21T16:27:35;2.78;;;1.73;;
60494;SDS011;46342;49.046;11.920;2022-11-21T16:30:01;3.60;;;2.00;;
60494;SDS011;46342;49.046;11.920;2022-11-21T16:32:26;7.80;;;4.07;;
60494;SDS011;46342;49.046;11.920;2022-11-21T16:34:52;9.07;;;4.85;;
60494;SDS011;46342;49.046;11.920;2022-11-21T16:37:22;6.38;;;3.92;;
60494;SDS011;46342;49.046;11.920;2022-11-21T16:39:48;7.72;;;4.35;;
60494;SDS011;46342;49.046;11.920;2022-11-21T16:42:16;7.63;;;4.72;;
60494;SDS011;46342;49.046;11.920;2022-11-21T16:44:43;4.68;;;3.13;;
60494;SDS011;46342;49.046;11.920;2022-11-21T16:47:09;4.25;;;3.00;;
60494;SDS011;46342;49.046;11.920;2022-11-21T16:49:35;4.80;;;2.72;;
60494;SDS011;46342;49.046;11.920;2022-11-21T16:52:06;2.65;;;2.20;;
60494;SDS011;46342;49.046;11.920;2022-11-21T16:54:32;4.07;;;2.50;;
60494;SDS011;46342;49.046;11.920;2022-11-21T16:56:58;3.13;;;2.33;;
60494;SDS011;46342;49.046;11.920;2022-11-21T16:59:23;3.30;;;2.30;;